createdAt,value
2018-08-06T00:00:33.387Z,36
2018-08-06T00:01:35.581Z,36.1
2018-08-06T00:02:37.740Z,36
2018-08-06T00:03:40.203Z,35.9
2018-08-06T00:04:42.387Z,36.1
2018-08-06T00:05:44.845Z,36.1
2018-08-06T00:06:46.493Z,36
2018-08-06T00:07:48.398Z,36.1
2018-08-06T00:08:50.861Z,36.1
2018-08-06T00:09:53.301Z,36.1
2018-08-06T00:10:55.750Z,36.1
2018-08-06T00:11:57.099Z,36
2018-08-06T00:12:59.538Z,36.1
2018-08-06T00:14:01.444Z,36
2018-08-06T00:15:03.092Z,36.1
2018-08-06T00:16:05.236Z,36
2018-08-06T00:17:07.406Z,36.1
2018-08-06T00:18:09.584Z,36.1
2018-08-06T00:19:11.768Z,36.1
2018-08-06T00:20:14.226Z,36.1
2018-08-06T00:21:16.413Z,36
2018-08-06T00:22:18.342Z,36.1
2018-08-06T00:23:20.227Z,36.2
2018-08-06T00:24:22.674Z,36.1
2018-08-06T00:25:24.330Z,36.2
2018-08-06T00:26:26.223Z,36.1
2018-08-06T00:27:28.398Z,36.1
2018-08-06T00:28:30.837Z,36.1
2018-08-06T00:29:33.057Z,36.1
2018-08-06T00:30:35.432Z,36
2018-08-06T00:31:37.593Z,36.1
2018-08-06T00:32:39.759Z,36.2
2018-08-06T00:33:41.943Z,36.1
2018-08-06T00:34:44.111Z,36
2018-08-06T00:35:46.278Z,36.1
2018-08-06T00:36:48.751Z,36
2018-08-06T00:37:51.206Z,36.1
2018-08-06T00:38:53.655Z,36.1
2018-08-06T00:39:55.539Z,36.1
2018-08-06T00:40:57.997Z,36.3
2018-08-06T00:41:59.908Z,36.3
2018-08-06T00:43:02.070Z,36.1
2018-08-06T00:44:04.517Z,36.1
2018-08-06T00:45:06.705Z,36.2
2018-08-06T00:46:09.156Z,36.3
2018-08-06T00:47:11.601Z,36.2
2018-08-06T00:48:13.505Z,36.1
2018-08-06T00:49:15.947Z,36.2
2018-08-06T00:50:18.394Z,36.1
2018-08-06T00:51:20.836Z,36.1
2018-08-06T00:52:23.015Z,36.2
2018-08-06T00:53:25.188Z,36
2018-08-06T00:54:27.637Z,36.2
2018-08-06T00:55:30.077Z,36.2
2018-08-06T00:56:32.257Z,36.1
2018-08-06T00:57:34.709Z,36.4
2018-08-06T00:58:37.166Z,36.1
2018-08-06T00:59:39.606Z,36.1
2018-08-06T01:00:41.792Z,36.1
2018-08-06T01:01:43.975Z,36
2018-08-06T01:02:46.422Z,36.2
2018-08-06T01:03:48.867Z,36.1
2018-08-06T01:04:51.335Z,36.1
2018-08-06T01:05:53.215Z,36
2018-08-06T01:06:55.657Z,36.2
2018-08-06T01:07:58.109Z,36.2
2018-08-06T01:09:00.014Z,36.2
2018-08-06T01:10:02.179Z,36.3
2018-08-06T01:11:04.633Z,36.2
2018-08-06T01:12:06.502Z,36.3
2018-08-06T01:13:08.948Z,36.3
2018-08-06T01:14:11.400Z,36.2
2018-08-06T01:15:13.841Z,36.2
2018-08-06T01:16:16.010Z,36.3
2018-08-06T01:17:17.915Z,36.2
2018-08-06T01:18:20.363Z,36.2
2018-08-06T01:19:22.544Z,36.3
2018-08-06T01:20:24.717Z,36.2
2018-08-06T01:21:27.167Z,36.1
2018-08-06T01:22:29.324Z,36.5
2018-08-06T01:23:31.778Z,36.3
2018-08-06T01:24:33.969Z,36.3
2018-08-06T01:25:36.161Z,36.3
2018-08-06T01:26:38.338Z,36.3
2018-08-06T01:27:40.550Z,36.3
2018-08-06T01:28:42.731Z,36.3
2018-08-06T01:29:44.923Z,36.3
2018-08-06T01:30:47.096Z,36.3
2018-08-06T01:31:49.270Z,36.3
2018-08-06T01:32:51.445Z,36.3
2018-08-06T01:33:53.340Z,36.2
2018-08-06T01:34:55.211Z,36.4
2018-08-06T01:35:57.126Z,36.4
2018-08-06T01:36:59.287Z,36.2
2018-08-06T01:38:01.197Z,36.3
2018-08-06T01:39:03.642Z,36.2
2018-08-06T01:40:06.088Z,36.4
2018-08-06T01:41:07.720Z,36.2
2018-08-06T01:42:09.900Z,36.4
2018-08-06T01:43:12.338Z,36.4
2018-08-06T01:44:14.777Z,36.4
2018-08-06T01:45:17.235Z,36.2
2018-08-06T01:46:19.424Z,36.3
2018-08-06T01:47:21.617Z,36.2
2018-08-06T01:48:23.805Z,36.4
2018-08-06T01:49:26.254Z,36.4
2018-08-06T01:50:28.434Z,36.2
2018-08-06T01:51:30.588Z,36.3
2018-08-06T01:52:32.501Z,36.4
2018-08-06T01:53:34.677Z,36.3
2018-08-06T01:54:36.816Z,36.3
2018-08-06T01:55:38.738Z,36.4
2018-08-06T01:56:40.914Z,36.2
2018-08-06T01:57:43.089Z,36.4
2018-08-06T01:58:45.254Z,36.3
2018-08-06T01:59:47.421Z,36.4
2018-08-06T02:00:49.872Z,36.3
2018-08-06T02:01:52.328Z,36.4
2018-08-06T02:02:54.519Z,36.4
2018-08-06T02:03:56.976Z,36.5
2018-08-06T02:04:59.429Z,36.4
2018-08-06T02:06:01.890Z,36.5
2018-08-06T02:07:04.341Z,36.5
2018-08-06T02:08:06.777Z,36.3
2018-08-06T02:09:09.241Z,36.4
2018-08-06T02:10:11.433Z,36.4
2018-08-06T02:11:13.880Z,36.4
2018-08-06T02:12:16.036Z,36.4
2018-08-06T02:13:17.916Z,36.2
2018-08-06T02:14:20.373Z,36.2
2018-08-06T02:15:22.827Z,36.4
2018-08-06T02:16:25.277Z,36.4
2018-08-06T02:17:27.430Z,36.4
2018-08-06T02:18:29.877Z,36.4
2018-08-06T02:19:32.335Z,36.4
2018-08-06T02:20:34.785Z,36.4
2018-08-06T02:21:36.960Z,36.4
2018-08-06T02:22:39.133Z,36.4
2018-08-06T02:23:41.328Z,36.3
2018-08-06T02:24:43.504Z,36.4
2018-08-06T02:25:45.407Z,36.3
2018-08-06T02:26:47.849Z,36.4
2018-08-06T02:27:50.297Z,36.6
2018-08-06T02:28:52.476Z,36.5
2018-08-06T02:29:54.097Z,36.3
2018-08-06T02:30:56.545Z,36.4
2018-08-06T02:31:59.011Z,36.4
2018-08-06T02:33:01.455Z,36.5
2018-08-06T02:34:03.895Z,36.5
2018-08-06T02:35:06.345Z,36.2
2018-08-06T02:36:08.796Z,36.5
2018-08-06T02:37:10.946Z,36.4
2018-08-06T02:38:13.379Z,36.4
2018-08-06T02:39:15.559Z,36.4
2018-08-06T02:40:18.013Z,36.3
2018-08-06T02:41:20.178Z,36.4
2018-08-06T02:42:22.626Z,36.5
2018-08-06T02:43:24.780Z,36.4
2018-08-06T02:44:27.221Z,36.4
2018-08-06T02:45:29.095Z,36.5
2018-08-06T02:46:31.552Z,36.5
2018-08-06T02:47:33.727Z,36.5
2018-08-06T02:48:36.215Z,36.4
2018-08-06T02:49:38.396Z,36.4
2018-08-06T02:50:40.842Z,36.5
2018-08-06T02:51:43.018Z,36.6
2018-08-06T02:52:45.478Z,36.4
2018-08-06T02:53:47.367Z,36.4
2018-08-06T02:54:49.558Z,36.4
2018-08-06T02:55:52.010Z,36.3
2018-08-06T02:56:54.191Z,36.5
2018-08-06T02:57:56.056Z,36.4
2018-08-06T02:58:58.230Z,36.4
2018-08-06T03:00:00.728Z,36.5
2018-08-06T03:01:03.235Z,36.5
2018-08-06T03:02:05.140Z,36.4
2018-08-06T03:03:07.285Z,36.4
2018-08-06T03:04:09.734Z,36.4
2018-08-06T03:05:11.885Z,36.3
2018-08-06T03:06:14.331Z,36.4
2018-08-06T03:07:16.487Z,36.3
2018-08-06T03:08:18.693Z,36.3
2018-08-06T03:09:20.574Z,36.3
2018-08-06T03:10:22.753Z,36.4
2018-08-06T03:11:25.220Z,36.4
2018-08-06T03:12:27.670Z,36.2
2018-08-06T03:13:29.582Z,36.1
2018-08-06T03:14:31.481Z,36.2
2018-08-06T03:15:33.639Z,36.2
2018-08-06T03:16:36.093Z,36.1
2018-08-06T03:17:38.555Z,36.4
2018-08-06T03:18:40.996Z,36.1
2018-08-06T03:19:43.440Z,36.2
2018-08-06T03:20:45.894Z,36.1
2018-08-06T03:21:48.051Z,36.1
2018-08-06T03:22:50.248Z,36
2018-08-06T03:23:52.714Z,36.2
2018-08-06T03:24:54.874Z,36.2
2018-08-06T03:25:57.061Z,36.2
2018-08-06T03:26:59.236Z,36
2018-08-06T03:28:01.424Z,36
2018-08-06T03:29:03.883Z,35.9
2018-08-06T03:30:05.797Z,36
2018-08-06T03:31:08.236Z,36.2
2018-08-06T03:32:10.450Z,36.1
2018-08-06T03:33:12.897Z,36.2
2018-08-06T03:34:15.047Z,36
2018-08-06T03:35:17.488Z,36
2018-08-06T03:36:19.669Z,36.1
2018-08-06T03:37:21.853Z,35.9
2018-08-06T03:38:23.751Z,36.1
2018-08-06T03:39:25.646Z,35.9
2018-08-06T03:40:27.840Z,36.1
2018-08-06T03:41:29.198Z,35.9
2018-08-06T03:42:31.081Z,36.1
2018-08-06T03:43:33.261Z,36.1
2018-08-06T03:44:35.437Z,36
2018-08-06T03:45:37.625Z,36.1
2018-08-06T03:46:39.794Z,35.9
2018-08-06T03:47:41.952Z,36
2018-08-06T03:48:44.117Z,36
2018-08-06T03:49:46.267Z,36
2018-08-06T03:50:48.706Z,35.9
2018-08-06T03:51:51.156Z,36
2018-08-06T03:52:53.561Z,35.9
2018-08-06T03:53:55.607Z,36
2018-08-06T03:54:58.058Z,36.1
2018-08-06T03:55:59.978Z,35.9
2018-08-06T03:57:02.182Z,35.8
2018-08-06T03:58:04.355Z,36
2018-08-06T03:59:06.527Z,35.9
2018-08-06T04:00:08.989Z,35.8
2018-08-06T04:01:11.427Z,36
2018-08-06T04:02:13.871Z,35.9
2018-08-06T04:03:15.788Z,35.9
2018-08-06T04:04:17.977Z,35.9
2018-08-06T04:05:20.163Z,36
2018-08-06T04:06:22.347Z,35.8
2018-08-06T04:07:24.792Z,35.8
2018-08-06T04:08:26.981Z,36.1
2018-08-06T04:09:28.856Z,36
2018-08-06T04:10:30.774Z,36.1
2018-08-06T04:11:32.960Z,36
2018-08-06T04:12:35.126Z,36
2018-08-06T04:13:37.749Z,35.8
2018-08-06T04:14:40.607Z,35.9
2018-08-06T04:15:42.501Z,35.9
2018-08-06T04:16:44.946Z,35.8
2018-08-06T04:17:47.113Z,35.9
2018-08-06T04:18:48.996Z,35.8
2018-08-06T04:19:51.441Z,35.9
2018-08-06T04:20:53.896Z,35.8
2018-08-06T04:21:56.076Z,35.9
2018-08-06T04:22:58.568Z,35.9
2018-08-06T04:24:00.169Z,36
2018-08-06T04:25:02.609Z,36.1
2018-08-06T04:26:04.774Z,36
2018-08-06T04:27:07.232Z,35.9
2018-08-06T04:28:09.684Z,36
2018-08-06T04:29:12.134Z,35.8
2018-08-06T04:30:14.311Z,35.8
2018-08-06T04:31:16.767Z,35.8
2018-08-06T04:32:19.222Z,36
2018-08-06T04:33:21.690Z,36
2018-08-06T04:34:23.278Z,35.8
2018-08-06T04:35:25.455Z,35.9
2018-08-06T04:36:27.368Z,35.8
2018-08-06T04:37:29.263Z,35.8
2018-08-06T04:38:31.799Z,35.8
2018-08-06T04:39:34.471Z,35.8
2018-08-06T04:40:36.643Z,35.8
2018-08-06T04:41:38.824Z,35.9
2018-08-06T04:42:41.012Z,35.9
2018-08-06T04:43:43.146Z,36
2018-08-06T04:44:45.585Z,35.9
2018-08-06T04:45:47.761Z,35.8
2018-08-06T04:46:49.937Z,35.7
2018-08-06T04:47:52.118Z,35.8
2018-08-06T04:48:54.010Z,35.9
2018-08-06T04:49:56.155Z,35.9
2018-08-06T04:50:58.337Z,35.9
2018-08-06T04:52:00.499Z,35.9
2018-08-06T04:53:02.417Z,36
2018-08-06T04:54:04.587Z,36
2018-08-06T04:55:07.027Z,35.9
2018-08-06T04:56:09.207Z,35.9
2018-08-06T04:57:11.661Z,35.9
2018-08-06T04:58:14.110Z,35.9
2018-08-06T04:59:16.565Z,35.9
2018-08-06T05:00:18.749Z,36
2018-08-06T05:01:21.189Z,35.7
2018-08-06T05:02:23.640Z,35.9
2018-08-06T05:03:26.123Z,35.8
2018-08-06T05:04:28.302Z,35.8
2018-08-06T05:05:30.753Z,35.9
2018-08-06T05:06:32.937Z,36
2018-08-06T05:07:34.850Z,35.9
2018-08-06T05:08:36.480Z,35.9
2018-08-06T05:09:38.694Z,36
2018-08-06T05:10:41.189Z,35.8
2018-08-06T05:11:43.408Z,36
2018-08-06T05:12:45.854Z,36
2018-08-06T05:13:48.297Z,35.9
2018-08-06T05:14:50.467Z,35.9
2018-08-06T05:15:52.092Z,35.9
2018-08-06T05:16:54.534Z,35.8
2018-08-06T05:17:56.982Z,35.9
2018-08-06T05:18:59.433Z,35.9
2018-08-06T05:20:01.867Z,36
2018-08-06T05:21:04.312Z,35.9
2018-08-06T05:22:06.763Z,35.9
2018-08-06T05:23:09.217Z,36
2018-08-06T05:24:11.683Z,35.9
2018-08-06T05:25:14.148Z,36
2018-08-06T05:26:16.606Z,35.8
2018-08-06T05:27:18.493Z,36
2018-08-06T05:28:20.675Z,35.9
2018-08-06T05:29:23.126Z,35.9
2018-08-06T05:30:25.565Z,35.9
2018-08-06T05:31:28.025Z,35.9
2018-08-06T05:32:30.470Z,35.9
2018-08-06T05:33:32.926Z,35.9
2018-08-06T05:34:35.105Z,35.9
2018-08-06T05:35:37.555Z,36.1
2018-08-06T05:36:39.730Z,35.8
2018-08-06T05:37:41.389Z,35.8
2018-08-06T05:38:43.845Z,35.9
2018-08-06T05:39:46.285Z,35.8
2018-08-06T05:40:48.495Z,35.9
2018-08-06T05:41:50.674Z,36
2018-08-06T05:42:53.129Z,35.9
2018-08-06T05:43:55.302Z,35.8
2018-08-06T05:44:57.501Z,35.9
2018-08-06T05:45:59.799Z,35.9
2018-08-06T05:47:01.748Z,35.8
2018-08-06T05:48:04.251Z,36
2018-08-06T05:49:06.719Z,35.9
2018-08-06T05:50:08.885Z,36
2018-08-06T05:51:11.048Z,35.9
2018-08-06T05:52:13.242Z,35.8
2018-08-06T05:53:15.716Z,35.9
2018-08-06T05:54:17.873Z,36
2018-08-06T05:55:20.319Z,36
2018-08-06T05:56:22.488Z,35.9
2018-08-06T05:57:24.693Z,35.8
2018-08-06T05:58:27.175Z,35.9
2018-08-06T05:59:29.626Z,35.9
2018-08-06T06:00:31.807Z,35.9
2018-08-06T06:01:34.272Z,35.8
2018-08-06T06:02:36.465Z,35.9
2018-08-06T06:03:38.713Z,35.8
2018-08-06T06:04:40.328Z,35.8
2018-08-06T06:05:42.470Z,36
2018-08-06T06:06:44.919Z,35.9
2018-08-06T06:07:47.368Z,36
2018-08-06T06:08:49.845Z,35.9
2018-08-06T06:09:52.294Z,36
2018-08-06T06:10:54.206Z,35.9
2018-08-06T06:11:56.383Z,35.9
2018-08-06T06:12:58.567Z,35.9
2018-08-06T06:14:01.016Z,35.9
2018-08-06T06:15:02.907Z,35.8
2018-08-06T06:16:05.350Z,35.8
2018-08-06T06:17:07.805Z,35.9
2018-08-06T06:18:10.299Z,35.9
2018-08-06T06:19:12.563Z,35.8
2018-08-06T06:20:15.028Z,35.9
2018-08-06T06:21:17.469Z,35.9
2018-08-06T06:22:19.648Z,35.9
2018-08-06T06:23:22.118Z,36
2018-08-06T06:24:24.280Z,35.9
2018-08-06T06:25:26.469Z,35.9
2018-08-06T06:26:28.370Z,35.9
2018-08-06T06:27:30.270Z,35.9
2018-08-06T06:28:32.817Z,36
2018-08-06T06:29:35.112Z,35.8
2018-08-06T06:30:37.572Z,35.9
2018-08-06T06:31:39.482Z,35.9
2018-08-06T06:32:41.661Z,35.9
2018-08-06T06:33:43.294Z,35.9
2018-08-06T06:34:44.707Z,36
2018-08-06T06:35:46.630Z,35.9
2018-08-06T06:36:48.537Z,35.9
2018-08-06T06:37:50.709Z,35.8
2018-08-06T06:38:52.602Z,35.8
2018-08-06T06:39:54.798Z,35.9
2018-08-06T06:40:57.247Z,35.9
2018-08-06T06:41:58.858Z,35.7
2018-08-06T06:43:00.765Z,35.9
2018-08-06T06:44:02.958Z,35.8
2018-08-06T06:45:05.129Z,35.9
2018-08-06T06:46:07.593Z,35.9
2018-08-06T06:47:09.768Z,36
2018-08-06T06:48:11.685Z,35.8
2018-08-06T06:49:13.670Z,35.9
2018-08-06T06:50:16.254Z,35.8
2018-08-06T06:51:18.432Z,35.9
2018-08-06T06:52:20.619Z,35.8
2018-08-06T06:53:22.812Z,35.9
2018-08-06T06:54:25.185Z,35.9
2018-08-06T06:55:27.596Z,36.1
2018-08-06T06:56:29.511Z,35.9
2018-08-06T06:57:31.658Z,35.9
2018-08-06T06:58:34.121Z,35.9
2018-08-06T06:59:36.573Z,35.9
2018-08-06T07:00:38.743Z,35.8
2018-08-06T07:01:41.204Z,35.9
2018-08-06T07:02:43.656Z,35.9
2018-08-06T07:03:46.113Z,35.8
2018-08-06T07:04:48.290Z,36.1
2018-08-06T07:05:50.741Z,35.8
2018-08-06T07:06:52.901Z,35.9
2018-08-06T07:07:55.347Z,35.9
2018-08-06T07:08:57.804Z,35.9
2018-08-06T07:09:59.939Z,36
2018-08-06T07:11:01.846Z,35.9
2018-08-06T07:12:04.313Z,35.8
2018-08-06T07:13:06.761Z,35.8
2018-08-06T07:14:09.356Z,35.8
2018-08-06T07:15:11.766Z,35.9
2018-08-06T07:16:14.209Z,35.9
2018-08-06T07:17:16.671Z,35.8
2018-08-06T07:18:18.856Z,35.9
2018-08-06T07:19:21.310Z,35.9
2018-08-06T07:20:24.053Z,36
2018-08-06T07:21:27.027Z,35.8
2018-08-06T07:22:29.487Z,35.8
2018-08-06T07:23:31.636Z,36
2018-08-06T07:24:33.817Z,36.1
2018-08-06T07:25:36.271Z,36
2018-08-06T07:26:37.898Z,35.8
2018-08-06T07:27:40.355Z,36
2018-08-06T07:28:42.506Z,35.9
2018-08-06T07:29:44.706Z,36
2018-08-06T07:30:46.903Z,36.1
2018-08-06T07:31:49.351Z,36
2018-08-06T07:32:51.798Z,35.9
2018-08-06T07:33:53.976Z,36
2018-08-06T07:34:55.889Z,35.9
2018-08-06T07:35:57.792Z,35.8
2018-08-06T07:36:59.959Z,35.9
2018-08-06T07:38:02.395Z,36
2018-08-06T07:39:04.852Z,35.9
2018-08-06T07:40:07.439Z,36
2018-08-06T07:41:09.218Z,36
2018-08-06T07:42:11.678Z,36
2018-08-06T07:43:14.327Z,35.9
2018-08-06T07:44:17.241Z,35.9
2018-08-06T07:45:19.131Z,35.9
2018-08-06T07:46:21.007Z,36
2018-08-06T07:47:23.178Z,35.8
2018-08-06T07:48:25.659Z,35.9
2018-08-06T07:49:27.901Z,35.9
2018-08-06T07:50:30.113Z,35.9
2018-08-06T07:51:32.284Z,35.8
2018-08-06T07:52:33.919Z,35.9
2018-08-06T07:53:36.364Z,36
2018-08-06T07:54:38.521Z,35.9
2018-08-06T07:55:40.695Z,35.8
2018-08-06T07:56:42.576Z,35.8
2018-08-06T07:57:44.502Z,35.9
2018-08-06T07:58:46.950Z,35.8
2018-08-06T07:59:48.971Z,35.9
2018-08-06T08:00:51.825Z,35.9
2018-08-06T08:01:54.273Z,35.9
2018-08-06T08:02:56.465Z,35.9
2018-08-06T08:03:58.912Z,35.9
2018-08-06T08:05:01.096Z,35.8
2018-08-06T08:06:03.006Z,35.9
2018-08-06T08:07:05.189Z,36
2018-08-06T08:08:07.637Z,36
2018-08-06T08:09:09.817Z,36
2018-08-06T08:10:12.258Z,35.9
2018-08-06T08:11:14.142Z,35.8
2018-08-06T08:12:16.335Z,36
2018-08-06T08:13:18.805Z,35.9
2018-08-06T08:14:20.986Z,36
2018-08-06T08:15:23.148Z,36
2018-08-06T08:16:25.316Z,35.9
2018-08-06T08:17:27.541Z,35.9
2018-08-06T08:18:29.802Z,35.9
2018-08-06T08:19:32.020Z,36
2018-08-06T08:20:33.671Z,35.9
2018-08-06T08:21:36.123Z,35.8
2018-08-06T08:22:38.013Z,35.7
2018-08-06T08:23:40.226Z,35.8
2018-08-06T08:24:41.885Z,35.9
2018-08-06T08:25:44.077Z,35.9
2018-08-06T08:26:45.704Z,36
2018-08-06T08:27:47.885Z,36
2018-08-06T08:28:50.342Z,35.9
2018-08-06T08:29:52.789Z,35.8
2018-08-06T08:30:54.713Z,35.8
2018-08-06T08:31:56.601Z,36
2018-08-06T08:32:58.776Z,36
2018-08-06T08:34:00.839Z,35.9
2018-08-06T08:35:03.287Z,36
2018-08-06T08:36:05.747Z,36
2018-08-06T08:37:07.913Z,35.8
2018-08-06T08:38:10.083Z,36
2018-08-06T08:39:12.260Z,35.9
2018-08-06T08:40:14.446Z,35.7
2018-08-06T08:41:16.903Z,35.8
2018-08-06T08:42:19.372Z,35.9
2018-08-06T08:43:21.016Z,35.9
2018-08-06T08:44:23.466Z,35.7
2018-08-06T08:45:26.015Z,35.8
2018-08-06T08:46:28.651Z,35.9
2018-08-06T08:47:30.838Z,36
2018-08-06T08:48:33.028Z,35.8
2018-08-06T08:49:34.954Z,35.9
2018-08-06T08:50:36.884Z,35.9
2018-08-06T08:51:39.370Z,35.9
2018-08-06T08:52:41.560Z,35.8
2018-08-06T08:53:43.745Z,35.9
2018-08-06T08:54:45.963Z,35.9
2018-08-06T08:55:48.414Z,35.8
2018-08-06T08:56:50.580Z,35.9
2018-08-06T08:57:52.470Z,35.9
2018-08-06T08:58:55.348Z,35.8
2018-08-06T08:59:58.103Z,35.7
2018-08-06T09:01:00.018Z,35.9
2018-08-06T09:02:02.177Z,35.9
2018-08-06T09:03:04.361Z,36
2018-08-06T09:04:06.544Z,35.8
2018-08-06T09:05:08.687Z,35.9
2018-08-06T09:06:10.873Z,35.9
2018-08-06T09:07:13.409Z,35.9
2018-08-06T09:08:15.633Z,36
2018-08-06T09:09:18.132Z,36
2018-08-06T09:10:20.595Z,35.9
2018-08-06T09:11:22.758Z,35.9
2018-08-06T09:12:24.945Z,36
2018-08-06T09:13:27.116Z,36
2018-08-06T09:14:29.568Z,35.9
2018-08-06T09:15:31.750Z,35.9
2018-08-06T09:16:33.662Z,35.9
2018-08-06T09:17:35.848Z,35.8
2018-08-06T09:18:38.022Z,36
2018-08-06T09:19:40.211Z,35.9
2018-08-06T09:20:42.663Z,35.8
2018-08-06T09:21:44.852Z,35.9
2018-08-06T09:22:47.038Z,36
2018-08-06T09:23:49.489Z,35.9
2018-08-06T09:24:51.403Z,35.9
2018-08-06T09:25:53.297Z,36
2018-08-06T09:26:55.755Z,35.9
2018-08-06T09:27:57.949Z,35.9
2018-08-06T09:29:00.102Z,35.9
2018-08-06T09:30:02.559Z,35.9
2018-08-06T09:31:05.009Z,35.9
2018-08-06T09:32:06.885Z,35.7
2018-08-06T09:33:09.334Z,36
2018-08-06T09:34:11.509Z,35.9
2018-08-06T09:35:13.949Z,35.9
2018-08-06T09:36:16.408Z,35.9
2018-08-06T09:37:18.600Z,36.1
2018-08-06T09:38:20.783Z,36
2018-08-06T09:39:23.237Z,35.9
2018-08-06T09:40:25.203Z,35.9
2018-08-06T09:41:26.815Z,35.8
2018-08-06T09:42:28.995Z,35.9
2018-08-06T09:43:30.912Z,35.9
2018-08-06T09:44:33.391Z,36
2018-08-06T09:45:35.575Z,35.7
2018-08-06T09:46:37.746Z,35.9
2018-08-06T09:47:39.377Z,36
2018-08-06T09:48:41.702Z,35.8
2018-08-06T09:49:44.587Z,35.9
2018-08-06T09:50:46.784Z,35.8
2018-08-06T09:51:48.690Z,35.9
2018-08-06T09:52:50.642Z,35.9
2018-08-06T09:53:52.890Z,36
2018-08-06T09:54:55.336Z,35.8
2018-08-06T09:55:57.801Z,35.9
2018-08-06T09:57:00.328Z,35.9
2018-08-06T09:58:02.715Z,35.9
2018-08-06T09:59:04.890Z,35.9
2018-08-06T10:00:06.788Z,35.9
2018-08-06T10:01:09.230Z,35.8
2018-08-06T10:02:11.687Z,35.8
2018-08-06T10:03:13.601Z,36
2018-08-06T10:04:15.763Z,35.8
2018-08-06T10:05:17.976Z,35.9
2018-08-06T10:06:20.568Z,35.8
2018-08-06T10:07:24.086Z,35.9
2018-08-06T10:08:26.041Z,35.7
2018-08-06T10:09:28.498Z,35.8
2018-08-06T10:10:30.682Z,35.9
2018-08-06T10:11:33.137Z,35.9
2018-08-06T10:12:35.311Z,35.9
2018-08-06T10:13:37.205Z,36
2018-08-06T10:14:39.388Z,36
2018-08-06T10:15:41.840Z,35.9
2018-08-06T10:16:44.308Z,36
2018-08-06T10:17:46.757Z,35.8
2018-08-06T10:18:49.379Z,35.8
2018-08-06T10:19:52.001Z,36
2018-08-06T10:20:54.444Z,36
2018-08-06T10:21:56.384Z,35.7
2018-08-06T10:22:58.582Z,36
2018-08-06T10:24:00.776Z,35.9
2018-08-06T10:25:02.454Z,35.9
2018-08-06T10:26:04.611Z,36
2018-08-06T10:27:07.062Z,36
2018-08-06T10:28:09.517Z,36
2018-08-06T10:29:12.008Z,36.1
2018-08-06T10:30:14.142Z,36
2018-08-06T10:31:16.751Z,35.9
2018-08-06T10:32:18.670Z,35.9
2018-08-06T10:33:20.587Z,35.9
2018-08-06T10:34:23.030Z,35.8
2018-08-06T10:35:25.212Z,36
2018-08-06T10:36:27.677Z,35.9
2018-08-06T10:37:29.873Z,35.9
2018-08-06T10:38:32.317Z,35.8
2018-08-06T10:39:34.186Z,35.9
2018-08-06T10:40:36.641Z,35.9
2018-08-06T10:41:38.824Z,35.9
2018-08-06T10:42:41.278Z,35.9
2018-08-06T10:43:43.752Z,36
2018-08-06T10:44:46.258Z,35.9
2018-08-06T10:45:48.719Z,36
2018-08-06T10:46:50.927Z,35.8
2018-08-06T10:47:53.379Z,36
2018-08-06T10:48:55.271Z,35.7
2018-08-06T10:49:57.448Z,35.9
2018-08-06T10:50:59.624Z,36
2018-08-06T10:52:01.799Z,35.9
2018-08-06T10:53:03.963Z,36
2018-08-06T10:54:05.867Z,35.9
2018-08-06T10:55:08.042Z,35.9
2018-08-06T10:56:10.438Z,36
2018-08-06T10:57:12.613Z,35.9
2018-08-06T10:58:14.286Z,35.9
2018-08-06T10:59:16.456Z,35.9
2018-08-06T11:00:18.907Z,35.9
2018-08-06T11:01:21.082Z,36
2018-08-06T11:02:23.530Z,36
2018-08-06T11:03:25.727Z,35.9
2018-08-06T11:04:27.943Z,35.8
2018-08-06T11:05:30.128Z,36
2018-08-06T11:06:31.825Z,36
2018-08-06T11:07:33.754Z,35.8
2018-08-06T11:08:35.660Z,35.9
2018-08-06T11:09:38.118Z,35.8
2018-08-06T11:10:40.577Z,36
2018-08-06T11:11:43.046Z,35.9
2018-08-06T11:12:45.511Z,36
2018-08-06T11:13:47.703Z,36
2018-08-06T11:14:49.880Z,35.9
2018-08-06T11:15:52.338Z,36
2018-08-06T11:16:54.240Z,35.9
2018-08-06T11:17:56.690Z,35.9
2018-08-06T11:18:58.612Z,35.9
2018-08-06T11:20:00.768Z,36
2018-08-06T11:21:03.224Z,35.9
2018-08-06T11:22:05.363Z,35.9
2018-08-06T11:23:07.814Z,35.9
2018-08-06T11:24:10.268Z,36
2018-08-06T11:25:12.716Z,35.9
2018-08-06T11:26:14.908Z,35.9
2018-08-06T11:27:17.115Z,35.9
2018-08-06T11:28:19.345Z,35.9
2018-08-06T11:29:21.302Z,35.9
2018-08-06T11:30:23.176Z,36
2018-08-06T11:31:25.091Z,36
2018-08-06T11:32:27.548Z,36
2018-08-06T11:33:29.470Z,35.9
2018-08-06T11:34:31.650Z,36.1
2018-08-06T11:35:33.842Z,36
2018-08-06T11:36:36.338Z,35.9
2018-08-06T11:37:38.577Z,35.8
2018-08-06T11:38:41.021Z,35.9
2018-08-06T11:39:43.195Z,35.8
2018-08-06T11:40:45.651Z,35.9
2018-08-06T11:41:47.812Z,36
2018-08-06T11:42:49.699Z,35.8
2018-08-06T11:43:51.883Z,36
2018-08-06T11:44:54.333Z,36
2018-08-06T11:45:56.550Z,36
2018-08-06T11:46:59.068Z,35.9
2018-08-06T11:48:01.566Z,35.9
2018-08-06T11:49:04.013Z,35.8
2018-08-06T11:50:06.184Z,35.9
2018-08-06T11:51:08.334Z,35.8
2018-08-06T11:52:10.799Z,35.9
2018-08-06T11:53:13.244Z,35.7
2018-08-06T11:54:15.696Z,35.9
2018-08-06T11:55:18.143Z,35.8
2018-08-06T11:56:20.636Z,36
2018-08-06T11:57:22.548Z,36
2018-08-06T11:58:24.183Z,35.9
2018-08-06T11:59:26.377Z,35.9
2018-08-06T12:00:28.833Z,36.1
2018-08-06T12:01:31.298Z,36
2018-08-06T12:02:33.476Z,36.1
2018-08-06T12:03:35.371Z,35.9
2018-08-06T12:04:37.829Z,36
2018-08-06T12:05:40.025Z,36
2018-08-06T12:06:42.212Z,35.9
2018-08-06T12:07:44.122Z,36
2018-08-06T12:08:46.577Z,35.9
2018-08-06T12:09:48.474Z,35.8
2018-08-06T12:10:50.645Z,35.8
2018-08-06T12:11:53.096Z,36
2018-08-06T12:12:55.551Z,35.9
2018-08-06T12:13:57.994Z,36.1
2018-08-06T12:15:00.494Z,35.9
2018-08-06T12:16:02.457Z,36
2018-08-06T12:17:04.903Z,36.1
2018-08-06T12:18:07.082Z,36
2018-08-06T12:19:09.007Z,36.1
2018-08-06T12:20:10.658Z,35.9
2018-08-06T12:21:13.174Z,36
2018-08-06T12:22:14.809Z,35.9
2018-08-06T12:23:17.257Z,36
2018-08-06T12:24:18.918Z,35.9
2018-08-06T12:25:20.573Z,35.9
2018-08-06T12:26:23.253Z,35.9
2018-08-06T12:27:26.289Z,35.9
2018-08-06T12:28:28.443Z,36.1
2018-08-06T12:29:30.609Z,35.9
2018-08-06T12:30:32.802Z,35.8
2018-08-06T12:31:35.286Z,35.8
2018-08-06T12:32:37.372Z,35.9
2018-08-06T12:33:39.023Z,36.1
2018-08-06T12:34:41.353Z,36
2018-08-06T12:35:43.002Z,35.9
2018-08-06T12:36:45.440Z,36
2018-08-06T12:37:47.890Z,36
2018-08-06T12:38:50.065Z,36
2018-08-06T12:39:52.516Z,35.9
2018-08-06T12:40:54.968Z,36
2018-08-06T12:41:57.429Z,36
2018-08-06T12:42:59.045Z,35.9
2018-08-06T12:44:01.529Z,36
2018-08-06T12:45:03.686Z,36
2018-08-06T12:46:06.212Z,35.9
2018-08-06T12:47:08.448Z,36.1
2018-08-06T12:48:10.632Z,35.9
2018-08-06T12:49:12.510Z,36.1
2018-08-06T12:50:14.433Z,36
2018-08-06T12:51:16.880Z,35.9
2018-08-06T12:52:19.057Z,36.1
2018-08-06T12:53:21.243Z,35.9
2018-08-06T12:54:23.169Z,36
2018-08-06T12:55:25.479Z,36
2018-08-06T12:56:27.936Z,35.8
2018-08-06T12:57:30.140Z,36
2018-08-06T12:58:32.068Z,36
2018-08-06T12:59:34.532Z,35.9
2018-08-06T13:00:36.992Z,36
2018-08-06T13:01:39.160Z,36
2018-08-06T13:02:41.620Z,36.2
2018-08-06T13:03:44.087Z,36
2018-08-06T13:04:45.970Z,35.9
2018-08-06T13:05:48.157Z,35.9
2018-08-06T13:06:50.369Z,35.8
2018-08-06T13:07:52.557Z,36
2018-08-06T13:08:55.007Z,35.9
2018-08-06T13:09:57.454Z,35.8
2018-08-06T13:10:59.624Z,36
2018-08-06T13:12:01.538Z,35.8
2018-08-06T13:13:04.074Z,36
2018-08-06T13:14:06.532Z,36
2018-08-06T13:15:08.709Z,35.9
2018-08-06T13:16:10.848Z,36.1
2018-08-06T13:17:13.296Z,36
2018-08-06T13:18:16.104Z,35.8
2018-08-06T13:19:18.105Z,36
2018-08-06T13:20:20.280Z,35.9
2018-08-06T13:21:22.187Z,35.8
2018-08-06T13:22:24.119Z,35.9
2018-08-06T13:23:26.289Z,36.1
2018-08-06T13:24:28.747Z,36
2018-08-06T13:25:31.342Z,35.9
2018-08-06T13:26:33.483Z,36
2018-08-06T13:27:35.659Z,35.9
2018-08-06T13:28:37.260Z,36.1
2018-08-06T13:29:39.438Z,35.8
2018-08-06T13:30:41.899Z,35.9
2018-08-06T13:31:43.574Z,36
2018-08-06T13:32:46.022Z,36.1
2018-08-06T13:33:47.934Z,35.9
2018-08-06T13:34:49.845Z,35.9
2018-08-06T13:35:52.328Z,35.8
2018-08-06T13:36:54.626Z,36
2018-08-06T13:37:56.951Z,36
2018-08-06T13:38:59.407Z,36
2018-08-06T13:40:01.854Z,35.9
2018-08-06T13:41:04.322Z,36
2018-08-06T13:42:06.496Z,36
2018-08-06T13:43:08.367Z,36
2018-08-06T13:44:10.279Z,35.9
2018-08-06T13:45:12.180Z,36
2018-08-06T13:46:14.378Z,35.8
2018-08-06T13:47:16.549Z,36.1
2018-08-06T13:48:18.999Z,36
2018-08-06T13:49:20.916Z,36
2018-08-06T13:50:23.366Z,35.9
2018-08-06T13:51:25.547Z,36
2018-08-06T13:52:28.003Z,35.9
2018-08-06T13:53:29.875Z,35.9
2018-08-06T13:54:32.313Z,35.9
2018-08-06T13:55:34.764Z,36.1
2018-08-06T13:56:36.694Z,36
2018-08-06T13:57:38.877Z,35.9
2018-08-06T13:58:41.055Z,35.8
2018-08-06T13:59:43.495Z,35.9
2018-08-06T14:00:45.669Z,36